Terminal Aerodrome Forecast
Issued by NWS

Home | Current Version | Previous Version | Text Only | Print | Product List | Glossary On
Versions: 1 2 3 4 5 6 7 8 9 10 11 12 13
523
FTUS45 KTFX 232335
TAFHLN
TAF
KHLN 232335Z 2400/2424 VRB05KT P6SM SCT040 BKN080
     FM240800 22004KT P6SM SCT080 BKN120
     FM242000 26014KT P6SM SCT060 BKN100=

USA.gov is the U.S. government's official web portal to all federal, state and local government web resources and services.